Latest Coastal Weather Observations for Noarlunga

IDS60701

Issued at 5:45 am CDT Sunday 26 October 2014 (issued every 10 minutes, with the page automatically refreshed every 10 minutes)

About coastal observations | Map of coastal stations | Coastal observations for SA | Marine services | Other Formats
Station Details ID: 023885 Name: NOARLUNGA Lat: -35.16 Lon: 138.51 Height: 55.0 m
Data from the previous 72 hours. | See also: Recent months at Noarlunga
Date/Time
CDT
Temp

°C
Wind Pressure Rain
since 9am
mm
Weather Cloud Vis
km
Sea
Height
m
Swell
Dir
 
Speed
knots
Gust
knots
hPa Trend Height
m
Period
s
Dir
26/05:30am 13.0 ESE 4 6 - - 0.0 - - - - - - -
26/05:00am 13.2 ESE 3 5 - - 0.0 - - - - - - -
26/04:30am 14.0 E 3 4 - - 0.0 - - - - - - -
26/04:00am 13.8 E 4 6 - - 0.0 - - - - - - -
26/03:30am 13.3 ESE 4 6 - - 0.0 - - - - - - -
26/03:00am 13.3 E 2 3 - - 0.0 - - - - - - -
26/02:30am 13.0 SE 1 3 - - 0.0 - - - - - - -
26/02:00am 13.1 E 4 6 - - 0.0 - - - - - - -
26/01:30am 13.7 ENE 3 6 - - 0.0 - - - - - - -
26/01:00am 13.8 E 4 6 - - 0.0 - - - - - - -
26/12:30am 13.9 E 2 4 - - 0.0 - - - - - - -
26/12:00am 14.1 ESE 5 8 - - 0.0 - - - - - - -
 
Date/Time
CDT
Temp

°C
Wind Pressure Rain
since 9am
mm
Weather Cloud Vis
km
Sea
Height
m
Swell
Dir
 
Speed
knots
Gust
knots
hPa Trend Height
m
Period
s
Dir
25/11:30pm 14.3 E 8 12 - - 0.0 - - - - - - -
25/11:00pm 14.5 E 8 10 - - 0.0 - - - - - - -
25/10:30pm 14.7 ESE 8 11 - - 0.0 - - - - - - -
25/10:00pm 15.1 E 8 12 - - 0.0 - - - - - - -
25/09:30pm 15.6 E 9 13 - - 0.0 - - - - - - -
25/09:00pm 16.3 E 7 10 - - 0.0 - - - - - - -
25/08:30pm 16.8 ESE 6 8 - - 0.0 - - - - - - -
25/08:00pm 17.7 SE 6 8 - - 0.0 - - - - - - -
25/07:30pm 19.1 N 1 1 - - 0.0 - - - - - - -
25/07:00pm 20.2 W 2 3 - - 0.0 - - - - - - -
25/06:30pm 20.6 W 4 5 - - 0.0 - - - - - - -
25/06:00pm 21.0 WNW 4 5 - - 0.0 - - - - - - -
25/05:30pm 21.0 W 4 7 - - 0.0 - - - - - - -
25/05:00pm 21.2 WNW 7 10 - - 0.0 - - - - - - -
25/04:30pm 21.7 WSW 4 7 - - 0.0 - - - - - - -
25/04:00pm 21.5 WSW 5 8 - - 0.0 - - - - - - -
25/03:30pm 21.0 WSW 6 11 - - 0.0 - - - - - - -
25/03:00pm 20.6 WSW 8 12 - - 0.0 - - - - - - -
25/02:30pm 21.1 W 7 11 - - 0.0 - - - - - - -
25/02:00pm 21.0 W 8 11 - - 0.0 - - - - - - -
25/01:30pm 21.1 W 7 11 - - 0.0 - - - - - - -
25/01:00pm 21.6 WSW 8 11 - - 0.0 - - - - - - -
25/12:30pm 21.7 W 6 11 - - 0.0 - - - - - - -
25/12:00pm 22.1 W 6 9 - - 0.0 - - - - - - -
25/11:30am 21.1 WNW 5 8 - - 0.0 - - - - - - -
25/11:00am 21.2 WNW 4 7 - - 0.0 - - - - - - -
25/10:30am 21.3 W 7 9 - - 0.0 - - - - - - -
25/10:00am 22.3 SSE 2 4 - - 0.0 - - - - - - -
25/09:30am 20.8 ESE 4 6 - - 0.0 - - - - - - -
25/09:00am 19.3 ESE 6 10 - - 0.0 - - - - - - -
25/08:30am 18.0 ESE 8 11 - - 0.0 - - - - - - -
25/08:00am 16.8 E 8 11 - - 0.0 - - - - - - -
25/07:30am 15.5 E 8 11 - - 0.0 - - - - - - -
25/07:00am 15.1 E 8 14 - - 0.0 - - - - - - -
25/06:30am 14.4 E 8 13 - - 0.0 - - - - - - -
25/06:00am 14.5 E 7 11 - - 0.0 - - - - - - -
25/05:30am 14.5 E 8 11 - - 0.0 - - - - - - -
25/05:00am 14.7 E 10 14 - - 0.0 - - - - - - -
25/04:30am 14.8 E 8 13 - - 0.0 - - - - - - -
25/04:00am 15.1 E 10 15 - - 0.0 - - - - - - -
25/03:30am 15.1 E 9 14 - - 0.0 - - - - - - -
25/03:00am 15.3 ENE 10 14 - - 0.0 - - - - - - -
25/02:30am 15.3 E 10 15 - - 0.0 - - - - - - -
25/02:00am 15.4 E 11 17 - - 0.0 - - - - - - -
25/01:30am 15.6 E 12 20 - - 0.0 - - - - - - -
25/01:00am 15.7 E 12 19 - - 0.0 - - - - - - -
25/12:30am 15.7 E 9 15 - - 0.0 - - - - - - -
25/12:00am 15.8 ESE 8 13 - - 0.0 - - - - - - -
 
Date/Time
CDT
Temp

°C
Wind Pressure Rain
since 9am
mm
Weather Cloud Vis
km
Sea
Height
m
Swell
Dir
 
Speed
knots
Gust
knots
hPa Trend Height
m
Period
s
Dir
24/11:30pm 16.2 E 12 18 - - 0.0 - - - - - - -
24/11:00pm 16.5 E 11 15 - - 0.0 - - - - - - -
24/10:30pm 16.9 E 9 14 - - 0.0 - - - - - - -
24/10:00pm 17.4 E 11 16 - - 0.0 - - - - - - -
24/09:30pm 18.3 ESE 11 17 - - 0.0 - - - - - - -
24/09:00pm 19.4 E 10 15 - - 0.0 - - - - - - -
24/08:30pm 20.4 ESE 10 14 - - 0.0 - - - - - - -
24/08:00pm 21.1 SE 12 14 - - 0.0 - - - - - - -
24/07:30pm 20.4 S 4 9 - - 0.0 - - - - - - -
24/07:00pm 21.0 SW 4 7 - - 0.0 - - - - - - -
24/06:30pm 24.6 WSW 2 5 - - 0.0 - - - - - - -
24/06:00pm 25.4 W 3 5 - - 0.0 - - - - - - -
24/05:30pm 25.3 SSW 6 10 - - 0.0 - - - - - - -
24/05:00pm 26.8 SW 9 15 - - 0.0 - - - - - - -
24/04:30pm 27.9 SW 8 11 - - 0.0 - - - - - - -
24/04:00pm 28.6 SW 8 13 - - 0.0 - - - - - - -
24/03:30pm 29.8 WSW 3 7 - - 0.0 - - - - - - -
24/03:00pm 29.5 W 3 6 - - 0.0 - - - - - - -
24/02:30pm 29.0 WSW 4 6 - - 0.0 - - - - - - -
24/02:00pm 28.4 W 5 8 - - 0.0 - - - - - - -
24/01:30pm 28.0 W 6 9 - - 0.0 - - - - - - -
24/01:00pm 27.7 NNW 7 9 - - 0.0 - - - - - - -
24/12:30pm 27.6 NNW 7 11 - - 0.0 - - - - - - -
24/12:00pm 26.3 NNW 6 9 - - 0.0 - - - - - - -
24/11:30am 25.7 NW 7 10 - - 0.0 - - - - - - -
24/11:00am 25.2 W 5 8 - - 0.0 - - - - - - -
24/10:30am 24.2 W 5 7 - - 0.0 - - - - - - -
24/10:00am 22.5 W 4 6 - - 0.0 - - - - - - -
24/09:30am 21.5 WNW 2 3 - - 0.0 - - - - - - -
24/09:00am 18.9 WNW 1 2 - - 0.0 - - - - - - -
24/08:30am 18.0 N 1 3 - - 0.0 - - - - - - -
24/08:00am 16.6 ESE 4 5 - - 0.0 - - - - - - -
24/07:30am 14.6 ESE 4 6 - - 0.0 - - - - - - -
24/07:00am 14.0 SE 2 2 - - 0.0 - - - - - - -
24/06:30am 13.9 SE 1 2 - - 0.0 - - - - - - -
24/06:00am 13.6 SE 2 3 - - 0.0 - - - - - - -
24/05:30am 13.5 W 3 4 - - 0.0 - - - - - - -
24/05:00am 14.1 NE 3 4 - - 0.0 - - - - - - -
24/04:30am 14.0 NE 1 2 - - 0.0 - - - - - - -
24/04:00am 14.1 NNE 2 2 - - 0.0 - - - - - - -
24/03:30am 13.6 E 1 2 - - 0.0 - - - - - - -
24/03:00am 13.8 NE 2 3 - - 0.0 - - - - - - -
24/02:30am 13.9 NE 1 2 - - 0.0 - - - - - - -
24/02:00am 13.8 NE 1 2 - - 0.0 - - - - - - -
24/01:30am 13.8 NE 2 3 - - 0.0 - - - - - - -
24/01:00am 14.2 ENE 2 2 - - 0.0 - - - - - - -
24/12:30am 14.7 CALM 0 0 - - 0.0 - - - - - - -
24/12:00am 14.9 NNW 2 3 - - 0.0 - - - - - - -
 
Date/Time
CDT
Temp

°C
Wind Pressure Rain
since 9am
mm
Weather Cloud Vis
km
Sea
Height
m
Swell
Dir
 
Speed
knots
Gust
knots
hPa Trend Height
m
Period
s
Dir
23/11:30pm 15.3 WNW 3 4 - - 0.0 - - - - - - -
23/11:00pm 15.7 NW 3 4 - - 0.0 - - - - - - -
23/10:30pm 15.9 N 2 3 - - 0.0 - - - - - - -
23/10:00pm 16.4 CALM 0 0 - - 0.0 - - - - - - -
23/09:30pm 16.5 CALM 0 2 - - 0.0 - - - - - - -
23/09:00pm 16.9 NW 2 3 - - 0.0 - - - - - - -
23/08:30pm 17.4 WNW 2 2 - - 0.0 - - - - - - -
23/08:00pm 17.7 N 2 2 - - 0.0 - - - - - - -
23/07:30pm 18.0 NNW 2 2 - - 0.0 - - - - - - -
23/07:00pm 18.4 WNW 3 4 - - 0.0 - - - - - - -
23/06:30pm 19.1 W 3 5 - - 0.0 - - - - - - -
23/06:00pm 19.5 W 2 4 - - 0.0 - - - - - - -
23/05:30pm 19.6 W 4 7 - - 0.0 - - - - - - -
23/05:00pm 19.9 WNW 6 9 - - 0.0 - - - - - - -
23/04:30pm 20.4 WNW 6 8 - - 0.0 - - - - - - -
23/04:00pm 20.8 WSW 6 9 - - 0.0 - - - - - - -
23/03:30pm 20.8 WSW 7 10 - - 0.0 - - - - - - -
23/03:00pm 22.0 WSW 7 10 - - 0.0 - - - - - - -
23/02:30pm 21.4 W 8 10 - - 0.0 - - - - - - -
23/02:00pm 21.7 WSW 8 11 - - 0.0 - - - - - - -
23/01:30pm 22.3 SW 8 12 - - 0.0 - - - - - - -
23/01:00pm 23.3 S 4 9 - - 0.0 - - - - - - -
23/12:30pm 22.6 SE 4 8 - - 0.0 - - - - - - -
23/12:00pm 21.2 SE 7 11 - - 0.0 - - - - - - -
23/11:30am 20.8 SE 7 11 - - 0.0 - - - - - - -
23/11:00am 18.9 SE 9 13 - - 0.0 - - - - - - -
23/10:30am 18.3 ESE 9 13 - - 0.0 - - - - - - -
23/10:00am 18.1 ESE 9 13 - - 0.0 - - - - - - -
23/09:30am 17.5 SE 9 13 - - 0.0 - - - - - - -
23/09:00am 17.0 ESE 9 13 - - 0.0 - - - - - - -
23/08:30am 16.0 ESE 8 13 - - 0.0 - - - - - - -
23/08:00am 14.9 SE 9 14 - - 0.0 - - - - - - -
23/07:30am 14.5 SE 11 14 - - 0.0 - - - - - - -
23/07:00am 14.3 SE 10 16 - - 0.0 - - - - - - -
23/06:30am 14.3 SE 9 14 - - 0.0 - - - - - - -
23/06:00am 14.1 SE 8 11 - - 0.0 - - - - - - -

Other Formats:

Comma delimited format used in spreadsheet applications
http://www.bom.gov.au/fwo/IDS60701/IDS60701.94808.axf

JavaScript Object Notation format (JSON) in row-major order
http://www.bom.gov.au/fwo/IDS60701/IDS60701.94808.json